createdAt,value
2024-02-26T00:00:52.209Z,72.02
2024-02-26T00:01:52.122Z,71.71
2024-02-26T00:02:52.200Z,71.92
2024-02-26T00:03:52.119Z,71.81
2024-02-26T00:04:52.082Z,71.71
2024-02-26T00:05:52.215Z,71.92
2024-02-26T00:06:52.162Z,72.12
2024-02-26T00:07:52.057Z,72.02
2024-02-26T00:08:52.084Z,72.02
2024-02-26T00:09:52.024Z,72.22
2024-02-26T00:10:52.053Z,72.02
2024-02-26T00:11:52.061Z,72.22
2024-02-26T00:12:52.097Z,72.02
2024-02-26T00:13:51.971Z,72.33
2024-02-26T00:14:51.992Z,72.53
2024-02-26T00:15:51.914Z,72.57
2024-02-26T00:16:51.924Z,72.67
2024-02-26T00:17:52.490Z,72.78
2024-02-26T00:18:51.996Z,73.08
2024-02-26T00:19:51.937Z,73.08
2024-02-26T00:20:51.866Z,72.98
2024-02-26T00:21:51.846Z,73.08
2024-02-26T00:22:51.951Z,72.98
2024-02-26T00:23:51.917Z,73.08
2024-02-26T00:24:51.844Z,73.08
2024-02-26T00:25:51.794Z,73.19
2024-02-26T00:26:51.864Z,72.88
2024-02-26T00:27:51.839Z,72.98
2024-02-26T00:28:51.800Z,73.08
2024-02-26T00:29:51.780Z,73.19
2024-02-26T00:30:51.765Z,73.08
2024-02-26T00:31:51.710Z,73.08
2024-02-26T00:32:51.800Z,73.50
2024-02-26T00:33:51.866Z,74.22
2024-02-26T00:34:51.920Z,73.91
2024-02-26T00:35:51.664Z,74.43
2024-02-26T00:36:51.645Z,73.60
2024-02-26T00:37:51.637Z,73.50
2024-02-26T00:38:52.058Z,73.81
2024-02-26T00:39:51.606Z,73.60
2024-02-26T00:40:51.608Z,74.02
2024-02-26T00:41:51.621Z,73.60
2024-02-26T00:42:51.577Z,73.50
2024-02-26T00:43:51.589Z,73.81
2024-02-26T00:44:51.640Z,73.81
2024-02-26T00:45:51.547Z,74.02
2024-02-26T00:46:51.514Z,73.60
2024-02-26T00:47:51.567Z,74.43
2024-02-26T00:48:51.665Z,74.33
2024-02-26T00:49:51.642Z,74.53
2024-02-26T00:50:51.508Z,72.98
2024-02-26T00:51:51.455Z,73.50
2024-02-26T00:52:51.477Z,73.60
2024-02-26T00:53:51.444Z,73.29
2024-02-26T00:54:51.433Z,73.91
2024-02-26T00:55:51.395Z,73.50
2024-02-26T00:56:51.442Z,74.02
2024-02-26T00:57:51.371Z,73.71
2024-02-26T00:58:51.350Z,73.29
2024-02-26T00:59:51.373Z,73.81
2024-02-26T01:00:51.352Z,73.50
2024-02-26T01:01:51.325Z,73.60
2024-02-26T01:02:51.374Z,73.71
2024-02-26T01:03:51.417Z,73.60
2024-02-26T01:04:51.361Z,74.12
2024-02-26T01:05:52.316Z,74.12
2024-02-26T01:06:51.419Z,73.71
2024-02-26T01:07:51.329Z,73.91
2024-02-26T01:08:51.256Z,73.91
2024-02-26T01:09:51.235Z,72.98
2024-02-26T01:10:51.235Z,73.19
2024-02-26T01:11:51.194Z,73.29
2024-02-26T01:12:51.179Z,73.50
2024-02-26T01:13:51.182Z,74.02
2024-02-26T01:14:51.168Z,73.71
2024-02-26T01:15:51.141Z,72.98
2024-02-26T01:16:51.127Z,72.88
2024-02-26T01:17:51.202Z,73.29
2024-02-26T01:18:51.244Z,72.98
2024-02-26T01:19:51.483Z,72.88
2024-02-26T01:20:51.112Z,73.19
2024-02-26T01:21:51.049Z,73.29
2024-02-26T01:22:51.040Z,73.29
2024-02-26T01:23:51.081Z,72.98
2024-02-26T01:24:51.029Z,73.08
2024-02-26T01:25:50.995Z,73.71
2024-02-26T01:26:51.005Z,73.08
2024-02-26T01:27:50.967Z,73.29
2024-02-26T01:28:50.952Z,73.39
2024-02-26T01:29:50.995Z,73.08
2024-02-26T01:30:50.962Z,73.19
2024-02-26T01:31:50.931Z,73.19
2024-02-26T01:32:51.125Z,72.88
2024-02-26T01:33:51.056Z,72.78
2024-02-26T01:34:50.913Z,73.08
2024-02-26T01:35:50.867Z,72.78
2024-02-26T01:36:50.875Z,73.39
2024-02-26T01:37:50.869Z,73.50
2024-02-26T01:38:50.870Z,73.29
2024-02-26T01:39:50.819Z,73.39
2024-02-26T01:40:50.816Z,73.29
2024-02-26T01:41:50.835Z,73.29
2024-02-26T01:42:50.814Z,72.98
2024-02-26T01:43:50.772Z,72.88
2024-02-26T01:44:50.780Z,73.39
2024-02-26T01:45:50.740Z,72.98
2024-02-26T01:46:50.737Z,73.19
2024-02-26T01:47:50.863Z,73.19
2024-02-26T01:48:50.798Z,73.29
2024-02-26T01:49:50.738Z,73.19
2024-02-26T01:50:50.738Z,72.88
2024-02-26T01:51:50.664Z,73.08
2024-02-26T01:52:50.683Z,73.19
2024-02-26T01:53:50.674Z,73.19
2024-02-26T01:54:50.625Z,73.39
2024-02-26T01:55:50.604Z,72.98
2024-02-26T01:56:50.612Z,73.39
2024-02-26T01:57:50.592Z,73.29
2024-02-26T01:58:50.904Z,73.19
2024-02-26T01:59:50.547Z,73.50
2024-02-26T02:00:50.577Z,73.19
2024-02-26T02:01:50.535Z,73.29
2024-02-26T02:02:50.618Z,73.29
2024-02-26T02:03:50.931Z,73.39
2024-02-26T02:04:50.526Z,73.29
2024-02-26T02:05:50.511Z,73.19
2024-02-26T02:06:50.563Z,73.60
2024-02-26T02:07:50.749Z,73.60
2024-02-26T02:08:50.522Z,73.19
2024-02-26T02:09:50.489Z,73.19
2024-02-26T02:10:50.420Z,73.08
2024-02-26T02:11:50.418Z,73.19
2024-02-26T02:12:50.393Z,73.50
2024-02-26T02:13:50.370Z,73.60
2024-02-26T02:14:50.480Z,73.71
2024-02-26T02:15:50.356Z,73.39
2024-02-26T02:16:50.339Z,73.39
2024-02-26T02:17:50.457Z,73.71
2024-02-26T02:18:50.389Z,73.91
2024-02-26T02:19:50.433Z,73.43
2024-02-26T02:20:50.307Z,74.43
2024-02-26T02:21:50.281Z,73.39
2024-02-26T02:22:50.263Z,73.29
2024-02-26T02:23:50.418Z,73.39
2024-02-26T02:24:50.231Z,73.08
2024-02-26T02:25:50.224Z,73.19
2024-02-26T02:26:50.227Z,73.29
2024-02-26T02:27:50.190Z,73.29
2024-02-26T02:28:50.212Z,73.29
2024-02-26T02:29:50.224Z,73.84
2024-02-26T02:30:50.151Z,73.22
2024-02-26T02:31:50.144Z,73.74
2024-02-26T02:32:50.198Z,73.54
2024-02-26T02:33:50.293Z,73.54
2024-02-26T02:34:50.460Z,73.54
2024-02-26T02:35:53.019Z,73.74
2024-02-26T02:36:50.089Z,73.64
2024-02-26T02:37:50.043Z,74.36
2024-02-26T02:38:50.454Z,73.71
2024-02-26T02:39:50.031Z,73.54
2024-02-26T02:40:50.036Z,73.50
2024-02-26T02:41:50.023Z,73.43
2024-02-26T02:42:50.076Z,73.43
2024-02-26T02:43:49.997Z,73.74
2024-02-26T02:44:50.037Z,73.64
2024-02-26T02:45:49.952Z,73.84
2024-02-26T02:46:49.929Z,73.74
2024-02-26T02:47:50.020Z,73.94
2024-02-26T02:48:50.078Z,74.15
2024-02-26T02:49:49.938Z,73.94
2024-02-26T02:50:49.965Z,73.94
2024-02-26T02:51:49.869Z,74.05
2024-02-26T02:52:49.860Z,74.15
2024-02-26T02:53:49.860Z,73.94
2024-02-26T02:54:49.838Z,74.46
2024-02-26T02:55:49.837Z,74.26
2024-02-26T02:56:49.829Z,74.36
2024-02-26T02:57:49.774Z,74.26
2024-02-26T02:58:49.786Z,74.57
2024-02-26T02:59:49.794Z,74.36
2024-02-26T03:00:49.801Z,74.36
2024-02-26T03:01:49.937Z,74.57
2024-02-26T03:02:49.733Z,74.46
2024-02-26T03:03:49.722Z,74.36
2024-02-26T03:04:49.761Z,74.88
2024-02-26T03:05:49.733Z,74.67
2024-02-26T03:06:49.811Z,74.57
2024-02-26T03:07:49.659Z,74.57
2024-02-26T03:08:49.701Z,74.46
2024-02-26T03:09:49.627Z,74.46
2024-02-26T03:10:49.667Z,74.77
2024-02-26T03:11:49.623Z,74.88
2024-02-26T03:12:49.915Z,75.50
2024-02-26T03:13:49.571Z,76.01
2024-02-26T03:14:49.606Z,75.40
2024-02-26T03:15:49.590Z,76.12
2024-02-26T03:16:49.558Z,76.22
2024-02-26T03:17:49.730Z,76.46
2024-02-26T03:18:49.648Z,76.74
2024-02-26T03:19:49.517Z,76.46
2024-02-26T03:20:49.530Z,76.98
2024-02-26T03:21:49.507Z,77.09
2024-02-26T03:22:49.475Z,76.98
2024-02-26T03:23:49.495Z,77.81
2024-02-26T03:24:49.439Z,77.81
2024-02-26T03:25:49.442Z,78.53
2024-02-26T03:26:49.501Z,77.91
2024-02-26T03:27:49.382Z,78.53
2024-02-26T03:28:49.418Z,77.91
2024-02-26T03:29:49.426Z,78.43
2024-02-26T03:30:49.377Z,79.05
2024-02-26T03:31:49.349Z,79.71
2024-02-26T03:32:49.558Z,79.91
2024-02-26T03:33:49.462Z,79.71
2024-02-26T03:34:49.463Z,81.05
2024-02-26T03:35:49.309Z,80.85
2024-02-26T03:36:49.282Z,80.85
2024-02-26T03:37:49.248Z,81.26
2024-02-26T03:38:49.274Z,81.78
2024-02-26T03:39:49.233Z,81.99
2024-02-26T03:40:49.233Z,82.19
2024-02-26T03:41:49.249Z,82.81
2024-02-26T03:42:49.200Z,82.75
2024-02-26T03:43:49.168Z,82.65
2024-02-26T03:44:49.204Z,82.54
2024-02-26T03:45:49.162Z,82.44
2024-02-26T03:46:49.181Z,83.06
2024-02-26T03:47:49.322Z,83.58
2024-02-26T03:48:49.271Z,83.68
2024-02-26T03:49:49.112Z,84.30
2024-02-26T03:50:49.218Z,83.99
2024-02-26T03:51:49.065Z,83.89
2024-02-26T03:52:49.079Z,84.30
2024-02-26T03:53:49.103Z,83.62
2024-02-26T03:54:49.031Z,84.23
2024-02-26T03:55:49.023Z,84.03
2024-02-26T03:56:49.036Z,84.34
2024-02-26T03:57:49.042Z,84.55
2024-02-26T03:58:49.002Z,84.23
2024-02-26T03:59:48.978Z,84.96
2024-02-26T04:00:49.190Z,84.96
2024-02-26T04:01:48.966Z,85.06
2024-02-26T04:02:48.989Z,84.75
2024-02-26T04:03:48.967Z,84.44
2024-02-26T04:04:49.215Z,85.06
2024-02-26T04:05:49.017Z,84.55
2024-02-26T04:06:49.074Z,85.48
2024-02-26T04:07:48.896Z,84.96
2024-02-26T04:08:48.923Z,85.69
2024-02-26T04:09:48.835Z,85.27
2024-02-26T04:10:48.932Z,85.38
2024-02-26T04:11:48.909Z,85.79
2024-02-26T04:12:48.839Z,86.41
2024-02-26T04:13:48.785Z,86.10
2024-02-26T04:14:48.770Z,86.10
2024-02-26T04:15:48.756Z,86.21
2024-02-26T04:16:48.742Z,86.41
2024-02-26T04:17:48.813Z,86.62
2024-02-26T04:18:48.951Z,86.62
2024-02-26T04:19:48.713Z,86.72
2024-02-26T04:20:48.724Z,86.93
2024-02-26T04:21:48.702Z,87.35
2024-02-26T04:22:48.666Z,87.55
2024-02-26T04:23:48.684Z,87.14
2024-02-26T04:24:48.637Z,87.76
2024-02-26T04:25:48.625Z,87.35
2024-02-26T04:26:48.631Z,87.04
2024-02-26T04:27:48.641Z,87.66
2024-02-26T04:28:48.606Z,87.76
2024-02-26T04:29:48.600Z,87.76
2024-02-26T04:30:48.548Z,87.80
2024-02-26T04:31:48.557Z,87.90
2024-02-26T04:32:48.668Z,87.80
2024-02-26T04:33:48.638Z,87.90
2024-02-26T04:34:48.521Z,88.32
2024-02-26T04:35:48.531Z,88.01
2024-02-26T04:36:48.493Z,87.90
2024-02-26T04:37:48.488Z,88.32
2024-02-26T04:38:48.453Z,88.53
2024-02-26T04:39:51.167Z,88.11
2024-02-26T04:40:48.949Z,88.11
2024-02-26T04:41:48.459Z,88.01
2024-02-26T04:42:48.419Z,88.01
2024-02-26T04:43:48.386Z,88.11
2024-02-26T04:44:48.380Z,88.01
2024-02-26T04:45:48.384Z,88.32
2024-02-26T04:46:48.349Z,88.32
2024-02-26T04:47:48.448Z,88.53
2024-02-26T04:48:48.464Z,88.21
2024-02-26T04:49:48.347Z,88.11
2024-02-26T04:50:48.455Z,88.73
2024-02-26T04:51:48.293Z,88.94
2024-02-26T04:52:48.277Z,88.21
2024-02-26T04:53:48.290Z,89.15
2024-02-26T04:54:48.315Z,88.84
2024-02-26T04:55:48.243Z,88.53
2024-02-26T04:56:48.248Z,88.21
2024-02-26T04:57:48.226Z,87.49
2024-02-26T04:58:48.201Z,88.21
2024-02-26T04:59:48.219Z,88.32
2024-02-26T05:00:48.209Z,88.32
2024-02-26T05:01:48.260Z,88.42
2024-02-26T05:02:48.214Z,88.69
2024-02-26T05:03:48.262Z,88.48
2024-02-26T05:04:48.101Z,88.48
2024-02-26T05:05:48.166Z,88.01
2024-02-26T05:06:48.165Z,88.01
2024-02-26T05:07:48.479Z,88.53
2024-02-26T05:08:48.179Z,89.15
2024-02-26T05:09:48.065Z,89.04
2024-02-26T05:10:48.034Z,88.90
2024-02-26T05:11:48.063Z,89.21
2024-02-26T05:12:48.014Z,88.90
2024-02-26T05:13:48.008Z,88.28
2024-02-26T05:14:48.079Z,88.18
2024-02-26T05:15:48.013Z,87.97
2024-02-26T05:16:47.954Z,87.14
2024-02-26T05:17:50.030Z,88.07
2024-02-26T05:18:48.053Z,88.79
2024-02-26T05:19:47.966Z,88.69
2024-02-26T05:20:47.954Z,88.39
2024-02-26T05:21:47.887Z,88.59
2024-02-26T05:22:47.882Z,88.79
2024-02-26T05:23:47.929Z,88.90
2024-02-26T05:24:47.856Z,88.63
2024-02-26T05:25:47.857Z,89.15
2024-02-26T05:26:47.923Z,89.36
2024-02-26T05:27:48.551Z,89.87
2024-02-26T05:28:47.868Z,90.39
2024-02-26T05:29:47.824Z,90.60
2024-02-26T05:30:47.941Z,91.12
2024-02-26T05:31:47.761Z,90.50
2024-02-26T05:32:47.843Z,90.70
2024-02-26T05:33:47.894Z,90.50
2024-02-26T05:34:47.812Z,90.08
2024-02-26T05:35:47.804Z,89.36
2024-02-26T05:36:47.714Z,89.77
2024-02-26T05:37:47.681Z,89.87
2024-02-26T05:38:47.943Z,89.98
2024-02-26T05:39:47.739Z,89.87
2024-02-26T05:40:47.640Z,90.29
2024-02-26T05:41:47.681Z,90.91
2024-02-26T05:42:47.611Z,90.70
2024-02-26T05:43:47.607Z,90.91
2024-02-26T05:44:47.604Z,91.02
2024-02-26T05:45:47.594Z,90.70
2024-02-26T05:46:47.619Z,90.19
2024-02-26T05:47:47.671Z,90.44
2024-02-26T05:48:47.622Z,90.85
2024-02-26T05:49:47.598Z,90.75
2024-02-26T05:50:47.568Z,91.47
2024-02-26T05:51:47.516Z,91.27
2024-02-26T05:52:47.469Z,91.16
2024-02-26T05:53:48.071Z,91.16
2024-02-26T05:54:47.445Z,91.16
2024-02-26T05:55:47.454Z,91.16
2024-02-26T05:56:47.519Z,91.06
2024-02-26T05:57:47.427Z,91.06
2024-02-26T05:58:47.400Z,91.37
2024-02-26T05:59:47.469Z,90.95
2024-02-26T06:00:47.441Z,90.64
2024-02-26T06:01:47.430Z,91.16
2024-02-26T06:02:47.383Z,91.37
2024-02-26T06:03:47.494Z,91.78
2024-02-26T06:04:47.340Z,91.33
2024-02-26T06:05:47.508Z,91.06
2024-02-26T06:06:47.468Z,91.02
2024-02-26T06:07:47.299Z,91.22
2024-02-26T06:08:47.316Z,91.33
2024-02-26T06:09:47.475Z,91.22
2024-02-26T06:10:47.308Z,91.22
2024-02-26T06:11:47.270Z,91.12
2024-02-26T06:12:47.303Z,91.53
2024-02-26T06:13:47.194Z,91.85
2024-02-26T06:14:47.532Z,90.91
2024-02-26T06:15:47.198Z,91.74
2024-02-26T06:16:47.173Z,91.43
2024-02-26T06:17:47.453Z,90.70
2024-02-26T06:18:47.253Z,90.70
2024-02-26T06:19:48.583Z,90.60
2024-02-26T06:20:47.173Z,91.53
2024-02-26T06:21:47.380Z,91.85
2024-02-26T06:22:47.109Z,91.95
2024-02-26T06:23:47.124Z,92.05
2024-02-26T06:24:47.493Z,91.64
2024-02-26T06:25:47.060Z,91.64
2024-02-26T06:26:47.870Z,91.43
2024-02-26T06:27:47.087Z,91.22
2024-02-26T06:28:47.035Z,91.74
2024-02-26T06:29:47.141Z,91.22
2024-02-26T06:30:47.382Z,90.81
2024-02-26T06:31:48.612Z,91.43
2024-02-26T06:32:48.914Z,91.74
2024-02-26T06:33:47.155Z,91.22
2024-02-26T06:34:47.327Z,91.22
2024-02-26T06:35:47.032Z,91.53
2024-02-26T06:36:47.129Z,91.39
2024-02-26T06:37:48.159Z,91.08
2024-02-26T06:38:47.671Z,91.18
2024-02-26T06:39:49.104Z,90.97
2024-02-26T06:40:46.970Z,91.28
2024-02-26T06:41:47.590Z,91.18
2024-02-26T06:42:49.647Z,90.77
2024-02-26T06:43:46.820Z,90.66
2024-02-26T06:44:47.108Z,90.45
2024-02-26T06:45:47.576Z,91.39
2024-02-26T06:46:47.307Z,91.49
2024-02-26T06:47:48.030Z,90.35
2024-02-26T06:48:50.530Z,90.56
2024-02-26T06:49:47.021Z,91.02
2024-02-26T06:50:46.843Z,90.60
2024-02-26T07:05:49.040Z,92.05
2024-02-26T07:06:44.004Z,91.33
2024-02-26T07:14:02.956Z,91.39
2024-02-26T07:14:57.501Z,91.49
2024-02-26T07:15:57.466Z,91.60
2024-02-26T07:17:06.777Z,91.43
2024-02-26T07:23:37.667Z,92.11
2024-02-26T07:24:37.055Z,92.43
2024-02-26T07:25:28.970Z,92.84
2024-02-26T07:26:51.740Z,92.63
2024-02-26T07:27:37.896Z,92.63
2024-02-26T07:28:22.889Z,92.63
2024-02-26T07:29:08.460Z,92.43
2024-02-26T07:30:08.455Z,92.32
2024-02-26T07:31:09.359Z,92.53
2024-02-26T07:32:09.435Z,92.63
2024-02-26T07:33:09.113Z,92.22
2024-02-26T07:34:08.642Z,91.91
2024-02-26T07:35:08.498Z,92.22
2024-02-26T07:36:16.105Z,92.22
2024-02-26T07:37:08.637Z,91.80
2024-02-26T07:38:16.803Z,92.11
2024-02-26T07:39:09.075Z,92.43
2024-02-26T07:40:12.182Z,92.84
2024-02-26T07:41:08.398Z,92.63
2024-02-26T07:42:09.157Z,93.46
2024-02-26T07:43:08.283Z,93.10
2024-02-26T07:47:19.785Z,92.49
2024-02-26T07:48:01.368Z,90.93
2024-02-26T07:48:39.789Z,91.24
2024-02-26T07:49:38.373Z,91.55
2024-02-26T07:55:47.723Z,92.07
2024-02-26T07:56:09.739Z,92.28
2024-02-26T07:57:05.572Z,92.38
2024-02-26T07:58:10.217Z,92.38
2024-02-26T07:59:09.964Z,92.28
2024-02-26T08:00:13.242Z,92.59
2024-02-26T08:01:05.747Z,92.59
2024-02-26T08:02:07.212Z,93.21
2024-02-26T08:04:53.515Z,93.00
2024-02-26T08:05:07.159Z,91.82
2024-02-26T08:06:12.818Z,92.13
2024-02-26T08:07:10.014Z,91.86
2024-02-26T08:08:09.943Z,91.86
2024-02-26T08:09:15.480Z,92.07
2024-02-26T08:12:44.948Z,92.07
2024-02-26T08:13:03.147Z,92.69
2024-02-26T08:13:58.444Z,93.21
2024-02-26T08:14:52.097Z,92.90
2024-02-26T08:15:52.572Z,92.38
2024-02-26T08:16:51.996Z,91.97
2024-02-26T08:17:57.039Z,92.59
2024-02-26T08:18:51.949Z,92.69
2024-02-26T08:19:52.066Z,92.80
2024-02-26T08:20:52.222Z,92.90
2024-02-26T08:21:51.891Z,93.31
2024-02-26T08:22:53.004Z,92.59
2024-02-26T08:23:52.121Z,92.69
2024-02-26T08:24:52.429Z,92.80
2024-02-26T08:25:51.810Z,93.00
2024-02-26T08:26:52.719Z,92.59
2024-02-26T08:27:52.193Z,92.07
2024-02-26T08:28:52.690Z,92.24
2024-02-26T08:30:01.513Z,92.13
2024-02-26T08:32:23.569Z,92.24
2024-02-26T08:32:29.992Z,92.28
2024-02-26T08:33:37.300Z,92.49
2024-02-26T08:34:29.177Z,92.28
2024-02-26T08:35:35.889Z,92.49
2024-02-26T08:36:38.888Z,92.96
2024-02-26T08:37:29.218Z,92.07
2024-02-26T08:38:29.220Z,92.38
2024-02-26T08:39:32.021Z,92.38
2024-02-26T08:40:28.924Z,92.38
2024-02-26T08:41:56.211Z,92.80
2024-02-26T08:43:08.973Z,92.96
2024-02-26T08:43:47.340Z,92.24
2024-02-26T08:45:39.171Z,92.65
2024-02-26T08:46:23.577Z,92.13
2024-02-26T08:47:54.128Z,92.03
2024-02-26T08:48:28.316Z,91.82
2024-02-26T08:49:15.074Z,91.93
2024-02-26T08:52:15.226Z,92.34
2024-02-26T08:52:37.858Z,92.13
2024-02-26T08:53:52.514Z,91.93
2024-02-26T08:54:42.349Z,91.93
2024-02-26T08:55:45.887Z,91.51
2024-02-26T08:57:07.929Z,92.13
2024-02-26T09:01:42.856Z,92.13
2024-02-26T09:02:11.942Z,92.13
2024-02-26T09:03:05.611Z,92.13
2024-02-26T09:04:18.400Z,92.96
2024-02-26T09:05:21.973Z,92.65
2024-02-26T09:06:09.993Z,92.03
2024-02-26T09:07:04.566Z,92.44
2024-02-26T09:08:15.559Z,92.44
2024-02-26T09:09:02.833Z,92.13
2024-02-26T09:10:06.174Z,91.82
2024-02-26T09:11:07.388Z,91.93
2024-02-26T09:12:08.054Z,91.78
2024-02-26T09:13:03.804Z,92.30
2024-02-26T09:16:44.865Z,92.09
2024-02-26T09:17:50.134Z,91.78
2024-02-26T09:18:41.941Z,91.88
2024-02-26T09:19:44.285Z,91.78
2024-02-26T09:20:48.769Z,92.30
2024-02-26T09:21:42.050Z,92.71
2024-02-26T09:31:15.729Z,92.81
2024-02-26T09:31:35.514Z,90.60
2024-02-26T09:32:34.867Z,90.29
2024-02-26T09:33:44.346Z,90.60
2024-02-26T09:37:27.345Z,91.11
2024-02-26T09:37:49.329Z,91.16
2024-02-26T09:39:02.017Z,90.53
2024-02-26T09:39:51.167Z,90.84
2024-02-26T09:40:51.688Z,90.53
2024-02-26T09:41:47.629Z,90.95
2024-02-26T09:42:48.175Z,90.33
2024-02-26T09:44:10.405Z,91.05
2024-02-26T09:46:55.411Z,90.95
2024-02-26T09:47:26.264Z,91.22
2024-02-26T09:48:17.264Z,91.32
2024-02-26T09:49:32.202Z,90.91
2024-02-26T09:50:17.710Z,90.19
2024-02-26T09:51:21.022Z,90.91
2024-02-26T09:52:17.364Z,90.60
2024-02-26T09:53:17.759Z,90.29
2024-02-26T09:54:20.779Z,90.29
2024-02-26T09:55:19.360Z,90.19
2024-02-26T09:56:28.000Z,89.56
2024-02-26T09:57:13.658Z,89.46
2024-02-26T09:58:17.583Z,89.77
2024-02-26T09:59:10.380Z,89.87
2024-02-26T10:00:17.224Z,91.22
2024-02-26T10:01:17.133Z,90.29
2024-02-26T10:07:31.358Z,90.14
2024-02-26T10:08:32.298Z,89.83
2024-02-26T10:09:32.175Z,89.52
2024-02-26T10:10:33.950Z,89.73
2024-02-26T10:11:33.513Z,89.52
2024-02-26T10:12:32.272Z,90.14
2024-02-26T10:13:34.052Z,89.42
2024-02-26T10:14:33.102Z,88.80
2024-02-26T10:15:31.974Z,89.62
2024-02-26T10:16:32.208Z,90.25
2024-02-26T10:17:33.342Z,91.07
2024-02-26T10:18:44.823Z,90.97
2024-02-26T10:19:35.155Z,89.79
2024-02-26T10:20:33.706Z,90.62
2024-02-26T10:22:24.952Z,89.07
2024-02-26T10:22:50.757Z,89.65
2024-02-26T10:23:48.003Z,89.13
2024-02-26T10:24:54.733Z,89.03
2024-02-26T10:26:09.139Z,87.79
2024-02-26T10:28:32.496Z,87.89
2024-02-26T10:29:01.016Z,88.61
2024-02-26T10:29:51.545Z,87.58
2024-02-26T10:30:42.801Z,88.10
2024-02-26T10:31:42.866Z,88.10
2024-02-26T10:32:42.755Z,87.68
2024-02-26T10:33:43.662Z,87.79
2024-02-26T10:34:42.790Z,87.68
2024-02-26T10:35:43.181Z,87.99
2024-02-26T10:36:48.669Z,88.31
2024-02-26T10:37:42.633Z,88.10
2024-02-26T10:38:43.073Z,88.31
2024-02-26T10:39:48.082Z,87.99
2024-02-26T10:40:42.992Z,88.41
2024-02-26T10:41:42.569Z,88.92
2024-02-26T10:42:42.544Z,89.13
2024-02-26T10:43:42.784Z,89.54
2024-02-26T10:44:42.539Z,89.13
2024-02-26T10:45:42.601Z,88.71
2024-02-26T10:46:42.530Z,88.51
2024-02-26T10:47:42.498Z,88.51
2024-02-26T10:48:43.432Z,88.51
2024-02-26T10:49:43.219Z,87.79
2024-02-26T10:50:43.934Z,87.68
2024-02-26T10:51:42.675Z,88.20
2024-02-26T10:52:42.445Z,87.99
2024-02-26T10:53:42.497Z,87.27
2024-02-26T10:54:42.462Z,87.48
2024-02-26T10:55:42.689Z,87.79
2024-02-26T10:56:42.786Z,87.99
2024-02-26T10:57:44.663Z,88.20
2024-02-26T10:58:53.676Z,88.98
2024-02-26T10:59:43.514Z,88.37
2024-02-26T11:00:42.428Z,87.74
2024-02-26T11:01:44.183Z,88.16
2024-02-26T11:02:44.487Z,87.44
2024-02-26T11:03:43.145Z,87.44
2024-02-26T11:04:46.177Z,87.44
2024-02-26T11:05:44.861Z,87.65
2024-02-26T11:06:43.059Z,86.82
2024-02-26T11:07:43.833Z,86.82
2024-02-26T11:08:42.700Z,87.13
2024-02-26T11:09:42.230Z,87.74
2024-02-26T11:10:44.863Z,87.34
2024-02-26T11:11:46.066Z,87.85
2024-02-26T11:12:43.904Z,87.44
2024-02-26T11:13:44.585Z,87.44
2024-02-26T11:14:42.136Z,87.95
2024-02-26T11:15:44.449Z,87.23
2024-02-26T11:16:42.435Z,87.74
2024-02-26T11:17:43.399Z,87.34
2024-02-26T11:18:43.264Z,86.68
2024-02-26T11:19:42.959Z,87.60
2024-02-26T11:20:42.160Z,86.68
2024-02-26T11:21:42.175Z,86.57
2024-02-26T11:22:42.044Z,86.47
2024-02-26T11:23:42.051Z,86.57
2024-02-26T11:24:42.003Z,87.08
2024-02-26T11:25:42.234Z,85.85
2024-02-26T11:26:42.042Z,86.26
2024-02-26T11:27:44.997Z,86.63
2024-02-26T11:28:42.335Z,86.74
2024-02-26T11:29:43.005Z,86.02
2024-02-26T11:30:42.037Z,86.63
2024-02-26T11:31:41.957Z,86.63
2024-02-26T11:32:41.935Z,85.60
2024-02-26T11:33:41.992Z,84.74
2024-02-26T11:34:42.029Z,85.09
2024-02-26T11:35:41.863Z,84.67
2024-02-26T11:36:41.867Z,84.22
2024-02-26T11:37:43.755Z,84.53
2024-02-26T11:39:03.883Z,84.64
2024-02-26T11:40:09.893Z,84.74
2024-02-26T11:41:10.079Z,84.64
2024-02-26T11:41:57.544Z,84.43
2024-02-26T11:42:54.406Z,84.39
2024-02-26T11:44:02.452Z,84.19
2024-02-26T11:44:53.373Z,84.08
2024-02-26T11:45:58.351Z,84.29
2024-02-26T11:46:57.562Z,82.29
2024-02-26T11:47:59.450Z,83.63
2024-02-26T11:49:01.181Z,81.16
2024-02-26T11:50:01.631Z,81.67
2024-02-26T11:50:54.053Z,80.85
2024-02-26T11:51:53.400Z,81.23
2024-02-26T11:53:16.361Z,81.33
2024-02-26T11:54:08.908Z,82.05
2024-02-26T11:54:55.037Z,83.28
2024-02-26T11:55:58.575Z,82.15
2024-02-26T11:56:43.412Z,82.97
2024-02-26T11:57:42.240Z,82.15
2024-02-26T11:58:41.561Z,82.32
2024-02-26T11:59:44.429Z,82.73
2024-02-26T12:00:43.581Z,83.14
2024-02-26T12:01:41.751Z,82.53
2024-02-26T12:02:41.613Z,82.73
2024-02-26T12:03:42.764Z,81.60
2024-02-26T12:04:41.645Z,81.19
2024-02-26T12:05:41.753Z,82.73
2024-02-26T12:06:42.425Z,83.04
2024-02-26T12:07:42.288Z,82.11
2024-02-26T12:08:41.468Z,82.01
2024-02-26T12:09:42.814Z,81.39
2024-02-26T12:10:43.236Z,81.70
2024-02-26T12:11:41.478Z,81.19
2024-02-26T12:12:42.404Z,82.53
2024-02-26T12:13:42.301Z,82.93
2024-02-26T12:14:41.405Z,82.05
2024-02-26T12:15:41.660Z,80.40
2024-02-26T12:16:41.448Z,81.16
2024-02-26T12:17:41.504Z,81.67
2024-02-26T12:18:41.468Z,81.37
2024-02-26T12:19:44.144Z,82.70
2024-02-26T12:21:06.154Z,82.29
2024-02-26T12:21:44.841Z,81.88
2024-02-26T12:22:42.781Z,81.77
2024-02-26T12:23:41.215Z,82.50
2024-02-26T12:24:41.231Z,81.77
2024-02-26T12:25:41.774Z,83.12
2024-02-26T12:26:41.197Z,81.61
2024-02-26T12:27:41.193Z,82.12
2024-02-26T12:28:41.875Z,81.51
2024-02-26T12:29:41.128Z,82.74
2024-02-26T12:30:41.840Z,83.05
2024-02-26T12:31:41.134Z,82.43
2024-02-26T12:32:41.140Z,82.33
2024-02-26T12:33:41.225Z,82.43
2024-02-26T12:34:41.208Z,82.84
2024-02-26T12:35:41.469Z,82.43
2024-02-26T12:36:41.630Z,82.12
2024-02-26T12:37:44.212Z,82.33
2024-02-26T12:38:41.900Z,82.16
2024-02-26T12:39:41.905Z,82.84
2024-02-26T12:40:42.406Z,82.43
2024-02-26T12:41:41.260Z,83.26
2024-02-26T12:42:41.149Z,82.02
2024-02-26T12:43:42.275Z,81.75
2024-02-26T12:44:40.925Z,82.89
2024-02-26T12:45:42.922Z,82.89
2024-02-26T12:46:41.405Z,83.47
2024-02-26T12:47:42.433Z,83.36
2024-02-26T12:48:41.996Z,83.56
2024-02-26T12:49:41.045Z,84.08
2024-02-26T12:50:41.011Z,83.36
2024-02-26T12:51:41.083Z,82.43
2024-02-26T12:52:43.371Z,82.95
2024-02-26T12:53:40.964Z,82.84
2024-02-26T12:54:41.038Z,82.33
2024-02-26T12:56:10.129Z,82.23
2024-02-26T12:56:40.782Z,82.23
2024-02-26T12:57:42.680Z,81.92
2024-02-26T12:58:42.871Z,82.33
2024-02-26T12:59:40.934Z,82.09
2024-02-26T13:00:56.942Z,81.51
2024-02-26T13:01:54.378Z,80.58
2024-02-26T13:02:41.464Z,81.51
2024-02-26T13:03:41.160Z,81.81
2024-02-26T13:04:47.452Z,81.30
2024-02-26T13:05:41.275Z,81.92
2024-02-26T13:06:40.862Z,81.71
2024-02-26T13:07:40.603Z,81.61
2024-02-26T13:08:40.611Z,80.99
2024-02-26T13:09:41.358Z,80.16
2024-02-26T13:10:40.617Z,80.89
2024-02-26T13:11:40.775Z,81.47
2024-02-26T13:12:40.709Z,80.65
2024-02-26T13:13:40.536Z,81.05
2024-02-26T13:14:40.538Z,79.82
2024-02-26T13:15:40.616Z,79.61
2024-02-26T13:16:40.493Z,80.44
2024-02-26T13:17:40.507Z,80.02
2024-02-26T13:18:40.650Z,79.30
2024-02-26T13:19:43.029Z,80.23
2024-02-26T13:20:40.460Z,80.30
2024-02-26T13:21:40.420Z,79.99
2024-02-26T13:22:40.482Z,78.03
2024-02-26T13:23:41.672Z,78.75
2024-02-26T13:24:40.857Z,79.68
2024-02-26T13:25:43.993Z,78.55
2024-02-26T13:26:40.905Z,78.03
2024-02-26T13:27:40.381Z,78.65
2024-02-26T13:28:40.416Z,79.03
2024-02-26T13:29:40.429Z,78.72
2024-02-26T13:30:40.335Z,78.61
2024-02-26T13:31:44.287Z,77.89
2024-02-26T13:32:40.315Z,78.00
2024-02-26T13:33:41.328Z,77.79
2024-02-26T13:34:40.454Z,77.58
2024-02-26T13:35:40.336Z,77.17
2024-02-26T13:36:40.273Z,77.28
2024-02-26T13:37:40.226Z,77.11
2024-02-26T13:38:42.663Z,77.48
2024-02-26T13:39:42.238Z,76.97
2024-02-26T13:40:40.826Z,76.56
2024-02-26T13:41:40.437Z,77.17
2024-02-26T13:42:40.221Z,76.70
2024-02-26T13:43:40.148Z,76.07
2024-02-26T13:44:40.238Z,76.70
2024-02-26T13:45:40.327Z,76.49
2024-02-26T13:46:40.151Z,77.21
2024-02-26T13:47:40.146Z,77.42
2024-02-26T13:48:40.195Z,77.00
2024-02-26T13:49:40.126Z,77.21
2024-02-26T13:50:40.135Z,77.21
2024-02-26T13:51:40.584Z,77.42
2024-02-26T13:52:40.037Z,77.11
2024-02-26T13:53:40.023Z,77.51
2024-02-26T13:54:40.671Z,77.83